Wylde Swan — PIWS — position and weather

sailwx.info

Track history (hours):
 
Tides and Currents Weather Stations Pressure Air Temp Water Temp Dewpoint Dewpoint Depression Visibility Wind Speed Wind Dir Waves Ship Positions

Wylde Swan

Last reported at 2017-Mar-26 12:31 UTC. Time now 2017-Mar-29 13:16 UTC.
Position N 51°54' E 004°27'.

Length 45 m; draft 3.3 m.

Type: Sailing vessel. MMSI: 244074000.

Date/timePositionNaut miles runAvg speedWind from/ knotsBaromVisibWave heightAir tempDewpointWater temp
2017-Mar-26 12:31N 51°54' E 004°27'0 0.0
2017-Mar-26 11:31N 51°54' E 004°27'0 0.0
2017-Mar-26 10:31N 51°54' E 004°27'0 0.0
2017-Mar-26 09:28N 51°54' E 004°27'0 0.0
2017-Mar-26 08:31N 51°54' E 004°27'0 0.0
2017-Mar-26 07:31N 51°54' E 004°27'0 0.0
2017-Mar-26 06:31N 51°54' E 004°27'0 0.0
2017-Mar-26 05:31N 51°54' E 004°27'0 0.0
2017-Mar-26 04:31N 51°54' E 004°27'0 0.0
2017-Mar-26 03:31N 51°54' E 004°27'0 0.0
2017-Mar-26 02:31N 51°54' E 004°27'0 0.0
2017-Mar-26 01:31N 51°54' E 004°27'0 0.0
2017-Mar-26 00:31N 51°54' E 004°27'0 0.0
2017-Mar-25 23:31N 51°54' E 004°27'0 0.0
2017-Mar-25 22:31N 51°54' E 004°27'0 0.0
2017-Mar-25 21:31N 51°54' E 004°27'0 0.0
2017-Mar-25 20:31N 51°54' E 004°27'0 0.0
2017-Mar-25 19:28N 51°54' E 004°27'0 0.0
2017-Mar-25 18:31N 51°54' E 004°27'0 0.0
2017-Mar-25 17:31N 51°54' E 004°27'0 0.0
2017-Mar-25 16:33N 51°54' E 004°27'0 0.0
2017-Mar-25 15:33N 51°54' E 004°27'1 0.5
2017-Mar-25 14:33N 51°54' E 004°27'2 1.6
2017-Mar-25 13:32N 51°54' E 004°29'0 0.0
2017-Mar-25 12:32N 51°54' E 004°29'0 0.0
2017-Mar-25 11:32N 51°54' E 004°29'0 0.0
2017-Mar-25 10:32N 51°54' E 004°29'3 3.3
2017-Mar-25 09:33N 51°54' E 004°24'2 1.9
2017-Mar-25 08:33N 51°54' E 004°21'7 6.8
2017-Mar-25 07:33N 51°57' E 004°11'6 5.7
2017-Mar-25 06:33N 51°59' E 004°03'7 7.2
2017-Mar-25 05:33N 52°05' E 004°10'4 3.6
2017-Mar-25 04:33N 52°06' E 004°16'0 0.0
2017-Mar-23 07:33N 52°06' E 004°16'3 3.1
2017-Mar-23 06:33N 52°05' E 004°11'3 3.4
2017-Mar-23 05:33N 52°04' E 004°06'2 1.6
2017-Mar-23 04:33N 52°03' E 004°04'2 2.1
2017-Mar-23 03:33N 52°01' E 004°01'5 4.9
2017-Mar-23 02:33N 51°58' E 003°55'4 4.0
2017-Mar-23 01:33N 51°55' E 003°50'4 4.0
2017-Mar-23 00:33N 51°53' E 003°45'4 4.3
2017-Mar-22 23:33N 51°53' E 003°38'4 4.2
2017-Mar-22 22:31N 51°51' E 003°31'6 6.1
2017-Mar-22 21:33N 51°47' E 003°25'4 4.2
2017-Mar-22 20:33N 51°43' E 003°21'6 5.0
2017-Mar-22 19:21N 51°39' E 003°15'5 5.8
2017-Mar-22 18:33N 51°36' E 003°10'6 5.7
2017-Mar-22 17:33N 51°31' E 003°04'5 5.0
2017-Mar-22 16:33N 51°28' E 002°57'6 6.4
2017-Mar-22 15:33N 51°25' E 002°48'7 6.7
2017-Mar-22 14:33N 51°22' E 002°39'6 6.5
2017-Mar-22 13:33N 51°21' E 002°28'8 7.6
2017-Mar-22 12:33N 51°18' E 002°18'8 8.1
2017-Mar-22 11:33N 51°13' E 002°07'9 9.1
2017-Mar-22 10:33N 51°09' E 001°54'9 9.5
2017-Mar-22 09:33N 51°06' E 001°40'5 5.2
2017-Mar-22 08:33N 51°07' E 001°32'5 5.4
2017-Mar-22 07:33N 51°05' E 001°24'8 7.6
2017-Mar-22 06:33N 51°01' E 001°14'8 7.5
2017-Mar-22 05:33N 50°55' E 001°06'9 7.3
2017-Mar-22 04:23N 50°50' E 000°55'5 5.9
2017-Mar-22 03:33N 50°48' E 000°48'6 5.6
2017-Mar-22 02:31N 50°44' E 000°41'7 6.9
2017-Mar-22 01:33N 50°41' E 000°32'6 5.7
2017-Mar-22 00:33N 50°40' E 000°23'5 5.0
2017-Mar-21 23:33N 50°39' E 000°15'6 5.8
2017-Mar-21 22:30N 50°37' E 000°06'5 5.1
2017-Mar-21 21:33N 50°37' W 000°02'4 4.5
2017-Mar-21 20:33N 50°37' W 000°09'4 4.1
2017-Mar-21 19:33N 50°37' W 000°15'5 4.9
2017-Mar-21 18:33N 50°37' W 000°23'5 5.2
2017-Mar-21 17:33N 50°37' W 000°31'6 5.9
2017-Mar-21 16:33N 50°37' W 000°40'7 7.4
2017-Mar-21 15:33N 50°41' W 000°51'7 7.0
2017-Mar-21 14:33N 50°43' W 001°01'6 6.2
2017-Mar-21 13:33N 50°45' W 001°10'5 4.6
2017-Mar-21 12:31N 50°46' W 001°18'0 0.0
2017-Mar-21 11:31N 50°46' W 001°18'0 0.0
2017-Mar-21 10:31N 50°46' W 001°18'0 0.0
2017-Mar-21 09:31N 50°46' W 001°18'0 0.0
2017-Mar-21 08:31N 50°46' W 001°18'0 0.0
2017-Mar-21 07:31N 50°46' W 001°18'0 0.0
2017-Mar-21 06:31N 50°46' W 001°18'0 0.0
2017-Mar-21 05:31N 50°46' W 001°18'0 0.0
2017-Mar-21 04:31N 50°46' W 001°18'0 0.0
2017-Mar-21 03:31N 50°46' W 001°18'0 0.0
2017-Mar-21 02:31N 50°46' W 001°18'0 0.0
2017-Mar-21 01:31N 50°46' W 001°18'0 0.0
2017-Mar-21 00:31N 50°46' W 001°18'0 0.0
2017-Mar-20 23:31N 50°46' W 001°18'0 0.0
2017-Mar-20 22:31N 50°46' W 001°18'0 0.0
2017-Mar-20 21:31N 50°46' W 001°18'0 0.0
2017-Mar-20 20:31N 50°46' W 001°18'0 0.0
2017-Mar-20 19:31N 50°46' W 001°18'0 0.0
2017-Mar-20 18:31N 50°46' W 001°18'0 0.0
2017-Mar-20 17:31N 50°46' W 001°18'0 0.0
2017-Mar-20 16:31N 50°46' W 001°18'0 0.0
2017-Mar-20 15:31N 50°46' W 001°18'0 0.0
2017-Mar-20 14:31N 50°46' W 001°18'0 0.0
2017-Mar-20 13:31N 50°46' W 001°18'0 0.0
2017-Mar-20 12:31N 50°46' W 001°18'0 0.0
2017-Mar-20 11:28N 50°46' W 001°18'0 0.0
2017-Mar-20 10:31N 50°46' W 001°18'0 0.0
2017-Mar-20 09:31N 50°46' W 001°18'0 0.0
2017-Mar-20 08:31N 50°46' W 001°18'0 0.0
2017-Mar-20 07:31N 50°46' W 001°18'0 0.0
2017-Mar-20 06:31N 50°46' W 001°18'0 0.0
2017-Mar-20 05:31N 50°46' W 001°18'0 0.0
2017-Mar-20 04:31N 50°46' W 001°18'0 0.0
2017-Mar-20 03:31N 50°46' W 001°18'0 0.0
2017-Mar-20 02:31N 50°46' W 001°18'0 0.0
2017-Mar-20 01:31N 50°46' W 001°18'0 0.0
2017-Mar-20 00:31N 50°46' W 001°18'0 0.0
2017-Mar-19 23:31N 50°46' W 001°18'0 0.0
2017-Mar-19 22:31N 50°46' W 001°18'0 0.0
2017-Mar-19 21:31N 50°46' W 001°18'0 0.0
2017-Mar-19 20:31N 50°46' W 001°18'0 0.0
2017-Mar-19 19:31N 50°46' W 001°18'0 0.0
2017-Mar-19 18:31N 50°46' W 001°18'0 0.0
2017-Mar-19 17:31N 50°46' W 001°18'0 0.0
2017-Mar-19 16:31N 50°46' W 001°18'0 0.0
2017-Mar-19 15:31N 50°46' W 001°18'0 0.0
2017-Mar-19 14:31N 50°46' W 001°18'0 0.0
2017-Mar-19 13:31N 50°46' W 001°18'0 0.0
2017-Mar-19 12:31N 50°46' W 001°18'0 0.0
2017-Mar-19 11:33N 50°46' W 001°18'3 3.2
2017-Mar-19 10:33N 50°45' W 001°23'8 8.1
2017-Mar-19 09:33N 50°41' W 001°34'6 6.3
2017-Mar-19 08:33N 50°35' W 001°38'4 4.3
2017-Mar-19 07:33N 50°36' W 001°44'5 5.2
2017-Mar-19 06:33N 50°39' W 001°51'5 5.0
2017-Mar-19 05:33N 50°35' W 001°53'7 7.4
2017-Mar-19 04:32N 50°27' W 001°51'26 2.3
2017-Mar-18 17:06N 50°26' W 002°33'5 6.1
2017-Mar-18 16:19N 50°30' W 002°37'3 3.7
2017-Mar-18 15:33N 50°32' W 002°40'4 3.4
2017-Mar-18 14:24N 50°28' W 002°38'9 7.5
2017-Mar-18 13:11N 50°19' W 002°36'2 3.7
2017-Mar-18 12:33N 50°20' W 002°39'7 6.6
2017-Mar-18 11:33N 50°26' W 002°44'5 5.3
2017-Mar-18 10:33N 50°30' W 002°48'6 5.5
2017-Mar-18 09:33N 50°35' W 002°51'5 4.5
2017-Mar-18 08:33N 50°39' W 002°56'5 5.5
2017-Mar-18 07:34N 50°35' W 003°01'6 5.7
2017-Mar-18 06:33N 50°30' W 003°06'5 4.8
2017-Mar-18 05:33N 50°26' W 003°09'6 6.5
2017-Mar-18 04:33N 50°20' W 003°13'10 9.9
2017-Mar-18 03:33N 50°12' W 003°23'9 8.8
2017-Mar-18 02:34N 50°05' W 003°32'9 9.5
2017-Mar-18 01:33N 49°58' W 003°42'1010.3
2017-Mar-18 00:33N 49°50' W 003°52'7010.1
2017-Mar-17 17:33N 48°47' W 004°38'7 7.2
2017-Mar-17 16:33N 48°40' W 004°39'4 3.6
2017-Mar-17 15:33N 48°37' W 004°36'  
Track history (hours):
 
Tides and Currents Weather Stations Pressure Air Temp Water Temp Dewpoint Dewpoint Depression Visibility Wind Speed Wind Dir Waves Ship Positions

Wylde Swan

Last reported at 2017-Mar-26 12:31 UTC. Time now 2017-Mar-29 13:16 UTC.
Position N 51°54' E 004°27'.

Length 45 m; draft 3.3 m.

Type: Sailing vessel. MMSI: 244074000.

Date/timePositionNaut miles runAvg speedWind from/ knotsBaromVisibWave heightAir tempDewpointWater temp
2017-Mar-26 12:31N 51°54' E 004°27'0 0.0
2017-Mar-26 11:31N 51°54' E 004°27'0 0.0
2017-Mar-26 10:31N 51°54' E 004°27'0 0.0
2017-Mar-26 09:28N 51°54' E 004°27'0 0.0
2017-Mar-26 08:31N 51°54' E 004°27'0 0.0
2017-Mar-26 07:31N 51°54' E 004°27'0 0.0
2017-Mar-26 06:31N 51°54' E 004°27'0 0.0
2017-Mar-26 05:31N 51°54' E 004°27'0 0.0
2017-Mar-26 04:31N 51°54' E 004°27'0 0.0
2017-Mar-26 03:31N 51°54' E 004°27'0 0.0
2017-Mar-26 02:31N 51°54' E 004°27'0 0.0
2017-Mar-26 01:31N 51°54' E 004°27'0 0.0
2017-Mar-26 00:31N 51°54' E 004°27'0 0.0
2017-Mar-25 23:31N 51°54' E 004°27'0 0.0
2017-Mar-25 22:31N 51°54' E 004°27'0 0.0
2017-Mar-25 21:31N 51°54' E 004°27'0 0.0
2017-Mar-25 20:31N 51°54' E 004°27'0 0.0
2017-Mar-25 19:28N 51°54' E 004°27'0 0.0
2017-Mar-25 18:31N 51°54' E 004°27'0 0.0
2017-Mar-25 17:31N 51°54' E 004°27'0 0.0
2017-Mar-25 16:33N 51°54' E 004°27'0 0.0
2017-Mar-25 15:33N 51°54' E 004°27'1 0.5
2017-Mar-25 14:33N 51°54' E 004°27'2 1.6
2017-Mar-25 13:32N 51°54' E 004°29'0 0.0
2017-Mar-25 12:32N 51°54' E 004°29'0 0.0
2017-Mar-25 11:32N 51°54' E 004°29'0 0.0
2017-Mar-25 10:32N 51°54' E 004°29'3 3.3
2017-Mar-25 09:33N 51°54' E 004°24'2 1.9
2017-Mar-25 08:33N 51°54' E 004°21'7 6.8
2017-Mar-25 07:33N 51°57' E 004°11'6 5.7
2017-Mar-25 06:33N 51°59' E 004°03'7 7.2
2017-Mar-25 05:33N 52°05' E 004°10'4 3.6
2017-Mar-25 04:33N 52°06' E 004°16'0 0.0
2017-Mar-23 07:33N 52°06' E 004°16'3 3.1
2017-Mar-23 06:33N 52°05' E 004°11'3 3.4
2017-Mar-23 05:33N 52°04' E 004°06'2 1.6
2017-Mar-23 04:33N 52°03' E 004°04'2 2.1
2017-Mar-23 03:33N 52°01' E 004°01'5 4.9
2017-Mar-23 02:33N 51°58' E 003°55'4 4.0
2017-Mar-23 01:33N 51°55' E 003°50'4 4.0
2017-Mar-23 00:33N 51°53' E 003°45'4 4.3
2017-Mar-22 23:33N 51°53' E 003°38'4 4.2
2017-Mar-22 22:31N 51°51' E 003°31'6 6.1
2017-Mar-22 21:33N 51°47' E 003°25'4 4.2
2017-Mar-22 20:33N 51°43' E 003°21'6 5.0
2017-Mar-22 19:21N 51°39' E 003°15'5 5.8
2017-Mar-22 18:33N 51°36' E 003°10'6 5.7
2017-Mar-22 17:33N 51°31' E 003°04'5 5.0
2017-Mar-22 16:33N 51°28' E 002°57'6 6.4
2017-Mar-22 15:33N 51°25' E 002°48'7 6.7
2017-Mar-22 14:33N 51°22' E 002°39'6 6.5
2017-Mar-22 13:33N 51°21' E 002°28'8 7.6
2017-Mar-22 12:33N 51°18' E 002°18'8 8.1
2017-Mar-22 11:33N 51°13' E 002°07'9 9.1
2017-Mar-22 10:33N 51°09' E 001°54'9 9.5
2017-Mar-22 09:33N 51°06' E 001°40'5 5.2
2017-Mar-22 08:33N 51°07' E 001°32'5 5.4
2017-Mar-22 07:33N 51°05' E 001°24'8 7.6
2017-Mar-22 06:33N 51°01' E 001°14'8 7.5
2017-Mar-22 05:33N 50°55' E 001°06'9 7.3
2017-Mar-22 04:23N 50°50' E 000°55'5 5.9
2017-Mar-22 03:33N 50°48' E 000°48'6 5.6
2017-Mar-22 02:31N 50°44' E 000°41'7 6.9
2017-Mar-22 01:33N 50°41' E 000°32'6 5.7
2017-Mar-22 00:33N 50°40' E 000°23'5 5.0
2017-Mar-21 23:33N 50°39' E 000°15'6 5.8
2017-Mar-21 22:30N 50°37' E 000°06'5 5.1
2017-Mar-21 21:33N 50°37' W 000°02'4 4.5
2017-Mar-21 20:33N 50°37' W 000°09'4 4.1
2017-Mar-21 19:33N 50°37' W 000°15'5 4.9
2017-Mar-21 18:33N 50°37' W 000°23'5 5.2
2017-Mar-21 17:33N 50°37' W 000°31'6 5.9
2017-Mar-21 16:33N 50°37' W 000°40'7 7.4
2017-Mar-21 15:33N 50°41' W 000°51'7 7.0
2017-Mar-21 14:33N 50°43' W 001°01'6 6.2
2017-Mar-21 13:33N 50°45' W 001°10'5 4.6
2017-Mar-21 12:31N 50°46' W 001°18'0 0.0
2017-Mar-21 11:31N 50°46' W 001°18'0 0.0
2017-Mar-21 10:31N 50°46' W 001°18'0 0.0
2017-Mar-21 09:31N 50°46' W 001°18'0 0.0
2017-Mar-21 08:31N 50°46' W 001°18'0 0.0
2017-Mar-21 07:31N 50°46' W 001°18'0 0.0
2017-Mar-21 06:31N 50°46' W 001°18'0 0.0
2017-Mar-21 05:31N 50°46' W 001°18'0 0.0
2017-Mar-21 04:31N 50°46' W 001°18'0 0.0
2017-Mar-21 03:31N 50°46' W 001°18'0 0.0
2017-Mar-21 02:31N 50°46' W 001°18'0 0.0
2017-Mar-21 01:31N 50°46' W 001°18'0 0.0
2017-Mar-21 00:31N 50°46' W 001°18'0 0.0
2017-Mar-20 23:31N 50°46' W 001°18'0 0.0
2017-Mar-20 22:31N 50°46' W 001°18'0 0.0
2017-Mar-20 21:31N 50°46' W 001°18'0 0.0
2017-Mar-20 20:31N 50°46' W 001°18'0 0.0
2017-Mar-20 19:31N 50°46' W 001°18'0 0.0
2017-Mar-20 18:31N 50°46' W 001°18'0 0.0
2017-Mar-20 17:31N 50°46' W 001°18'0 0.0
2017-Mar-20 16:31N 50°46' W 001°18'0 0.0
2017-Mar-20 15:31N 50°46' W 001°18'0 0.0
2017-Mar-20 14:31N 50°46' W 001°18'0 0.0
2017-Mar-20 13:31N 50°46' W 001°18'0 0.0
2017-Mar-20 12:31N 50°46' W 001°18'0 0.0
2017-Mar-20 11:28N 50°46' W 001°18'0 0.0
2017-Mar-20 10:31N 50°46' W 001°18'0 0.0
2017-Mar-20 09:31N 50°46' W 001°18'0 0.0
2017-Mar-20 08:31N 50°46' W 001°18'0 0.0
2017-Mar-20 07:31N 50°46' W 001°18'0 0.0
2017-Mar-20 06:31N 50°46' W 001°18'0 0.0
2017-Mar-20 05:31N 50°46' W 001°18'0 0.0
2017-Mar-20 04:31N 50°46' W 001°18'0 0.0
2017-Mar-20 03:31N 50°46' W 001°18'0 0.0
2017-Mar-20 02:31N 50°46' W 001°18'0 0.0
2017-Mar-20 01:31N 50°46' W 001°18'0 0.0
2017-Mar-20 00:31N 50°46' W 001°18'0 0.0
2017-Mar-19 23:31N 50°46' W 001°18'0 0.0
2017-Mar-19 22:31N 50°46' W 001°18'0 0.0
2017-Mar-19 21:31N 50°46' W 001°18'0 0.0
2017-Mar-19 20:31N 50°46' W 001°18'0 0.0
2017-Mar-19 19:31N 50°46' W 001°18'0 0.0
2017-Mar-19 18:31N 50°46' W 001°18'0 0.0
2017-Mar-19 17:31N 50°46' W 001°18'0 0.0
2017-Mar-19 16:31N 50°46' W 001°18'0 0.0
2017-Mar-19 15:31N 50°46' W 001°18'0 0.0
2017-Mar-19 14:31N 50°46' W 001°18'0 0.0
2017-Mar-19 13:31N 50°46' W 001°18'0 0.0
2017-Mar-19 12:31N 50°46' W 001°18'0 0.0
2017-Mar-19 11:33N 50°46' W 001°18'3 3.2
2017-Mar-19 10:33N 50°45' W 001°23'8 8.1
2017-Mar-19 09:33N 50°41' W 001°34'6 6.3
2017-Mar-19 08:33N 50°35' W 001°38'4 4.3
2017-Mar-19 07:33N 50°36' W 001°44'5 5.2
2017-Mar-19 06:33N 50°39' W 001°51'5 5.0
2017-Mar-19 05:33N 50°35' W 001°53'7 7.4
2017-Mar-19 04:32N 50°27' W 001°51'26 2.3
2017-Mar-18 17:06N 50°26' W 002°33'5 6.1
2017-Mar-18 16:19N 50°30' W 002°37'3 3.7
2017-Mar-18 15:33N 50°32' W 002°40'4 3.4
2017-Mar-18 14:24N 50°28' W 002°38'9 7.5
2017-Mar-18 13:11N 50°19' W 002°36'2 3.7
2017-Mar-18 12:33N 50°20' W 002°39'7 6.6
2017-Mar-18 11:33N 50°26' W 002°44'5 5.3
2017-Mar-18 10:33N 50°30' W 002°48'6 5.5
2017-Mar-18 09:33N 50°35' W 002°51'5 4.5
2017-Mar-18 08:33N 50°39' W 002°56'5 5.5
2017-Mar-18 07:34N 50°35' W 003°01'6 5.7
2017-Mar-18 06:33N 50°30' W 003°06'5 4.8
2017-Mar-18 05:33N 50°26' W 003°09'6 6.5
2017-Mar-18 04:33N 50°20' W 003°13'10 9.9
2017-Mar-18 03:33N 50°12' W 003°23'9 8.8
2017-Mar-18 02:34N 50°05' W 003°32'9 9.5
2017-Mar-18 01:33N 49°58' W 003°42'1010.3
2017-Mar-18 00:33N 49°50' W 003°52'7010.1
2017-Mar-17 17:33N 48°47' W 004°38'7 7.2
2017-Mar-17 16:33N 48°40' W 004°39'4 3.6
2017-Mar-17 15:33N 48°37' W 004°36'  

Dump ship's entire track history